»·PEaware :: N221XG KSBA-KCNO

N221XG :: KSBA-KCNO

FLIGHT INFORMATION

Flight Status: Arrived
Operator: Privately registered:
United States
More flights under this callsign
Pilot: Ryan L. (9775)
Aircraft: BEECH AIRCRAFT SUPER KING AIR 350
(B350)
More flights by this aircraft type
Origin: KSBA Santa Barbara Mun
United States
Destination: KCNO Chino
United States
More flights between these airports :: More routes between these airports
Route: +HENER FIM V186 ITSME V264 POM V197 PDZ
File this flight plan on PilotEdge
Remarks:
Altitude:
(Current/Filed)
9,000ft
Speed:
(Current/Filed)
270kts
Departed: 11-Aug-19 07:21 PM
Arrived: 11-Aug-19 07:56 PM
Distance/Time
Traveled:
112nm/0:35
Distance/Time
To Go:
Arrived

Flight Plot

Page will automatically refresh every two minutes.


Map Options




Map Legend


Flown Route
Filed Route
Departure Airport
Arrival Airport
Navaid (VOR, NDB)
Fix

Horizontal Profiles

Position Reports

Time Latitude Longitude Heading Altitude Ground
Speed
11-Aug-19 19:06 34.430040 -119.843051 326 18ft 0kts
11-Aug-19 19:07 34.430040 -119.843051 326 18ft 0kts
11-Aug-19 19:08 34.430040 -119.843051 326 18ft 0kts
11-Aug-19 19:09 34.430040 -119.843051 326 18ft 0kts
11-Aug-19 19:10 34.430040 -119.843051 326 18ft 0kts
11-Aug-19 19:11 34.430040 -119.843051 326 18ft 0kts
11-Aug-19 19:12 34.430040 -119.843052 326 18ft 0kts
11-Aug-19 19:13 34.430040 -119.843051 326 18ft 0kts
11-Aug-19 19:14 34.429914 -119.843194 146 18ft 0kts
11-Aug-19 19:15 34.429914 -119.843194 146 18ft 0kts
11-Aug-19 19:16 34.429914 -119.843194 146 18ft 0kts
11-Aug-19 19:16 34.429754 -119.842319 77 18ft 7kts
11-Aug-19 19:18 34.429918 -119.841873 58 18ft 0kts
11-Aug-19 19:19 34.429918 -119.841873 58 18ft 0kts
11-Aug-19 19:19 34.430029 -119.841381 166 18ft 0kts
11-Aug-19 19:20 34.416763 -119.837174 162 377ft 121kts
11-Aug-19 19:22 34.381671 -119.822543 163 2809ft 132kts
11-Aug-19 19:22 34.350386 -119.804985 158 4335ft 156kts
11-Aug-19 19:23 34.308982 -119.785320 157 6488ft 163kts
11-Aug-19 19:24 34.268117 -119.760717 124 8268ft 176kts
11-Aug-19 19:25 34.277829 -119.700884 67 9031ft 235kts
11-Aug-19 19:26 34.289219 -119.617012 81 9002ft 265kts
11-Aug-19 19:27 34.297934 -119.527391 82 8990ft 268kts
11-Aug-19 19:28 34.306366 -119.437380 83 8990ft 268kts
11-Aug-19 19:29 34.314643 -119.347861 82 8989ft 268kts
11-Aug-19 19:30 34.322003 -119.265469 83 8989ft 269kts
11-Aug-19 19:31 34.330246 -119.175010 83 8990ft 269kts
11-Aug-19 19:32 34.338415 -119.085073 83 8990ft 269kts
11-Aug-19 19:33 34.346546 -118.994650 83 8991ft 269kts
11-Aug-19 19:34 34.339242 -118.904750 94 8994ft 269kts
11-Aug-19 19:35 34.333288 -118.814389 94 8997ft 269kts
11-Aug-19 19:36 34.308779 -118.730710 123 8998ft 271kts
11-Aug-19 19:37 34.277945 -118.647406 112 8999ft 272kts
11-Aug-19 19:38 34.248430 -118.562222 112 8999ft 272kts
11-Aug-19 19:39 34.218664 -118.477859 110 8997ft 273kts
11-Aug-19 19:40 34.192975 -118.391135 110 8999ft 273kts
11-Aug-19 19:41 34.166963 -118.306017 110 8999ft 273kts
11-Aug-19 19:42 34.140625 -118.220057 110 8999ft 273kts
11-Aug-19 19:43 34.115492 -118.137971 110 8316ft 243kts
11-Aug-19 19:44 34.092770 -118.063967 110 6980ft 222kts
11-Aug-19 19:45 34.072846 -117.991264 94 7003ft 233kts
11-Aug-19 19:46 34.075770 -117.913180 92 7005ft 232kts
11-Aug-19 19:47 34.062834 -117.837775 102 6549ft 222kts
11-Aug-19 19:48 34.049875 -117.765475 102 5060ft 218kts
11-Aug-19 19:49 34.039165 -117.703419 102 4813ft 171kts
11-Aug-19 19:50 34.029737 -117.647050 102 3420ft 175kts
11-Aug-19 19:51 34.020495 -117.588546 102 1998ft 172kts
11-Aug-19 19:52 33.994310 -117.569638 185 2050ft 135kts
11-Aug-19 19:53 33.975940 -117.597180 268 1187ft 110kts
11-Aug-19 19:54 33.975842 -117.632119 267 667ft 99kts
11-Aug-19 19:55 33.975836 -117.643999 315 654ft 7kts
11-Aug-19 19:56 33.976522 -117.644136 356 654ft 0kts
11-Aug-19 19:57 33.977210 -117.643414 358 654ft 6kts
11-Aug-19 19:58 33.979124 -117.643666 265 654ft 3kts
11-Aug-19 19:59 33.979120 -117.643716 264 654ft 0kts

Navigation Log

Ident Type
Flight plan parsing failed, navigation log unavailable